Time;durP1;ratioP1;P1;durP2;ratioP2;P2;SDS_P1;SDS_P2;PMS_P1;PMS_P2;Temp;Humidity;BMP_temperature;BMP_pressure;BME280_temperature;BME280_humidity;BME280_pressure;Samples;Min_cycle;Max_cycle;Signal;HPM_P1;HPM_P2
2022/12/26 00:01:26;;;;;;;37.53;15.07;;;;;;;4.78;100.00;6820.72;5009556;28;20037;-75
2022/12/26 00:03:52;;;;;;;67.18;16.40;;;;;;;4.68;100.00;7144.63;5020904;28;20029;-74
2022/12/26 00:06:20;;;;;;;55.08;15.38;;;;;;;4.63;100.00;7144.09;5021576;28;20514;-74
2022/12/26 00:08:47;;;;;;;82.75;16.77;;;;;;;4.59;100.00;7468.41;5004263;28;20041;-75
2022/12/26 00:11:13;;;;;;;42.83;15.00;;;;;;;4.58;100.00;7468.34;4987345;28;20156;-76
2022/12/26 00:13:39;;;;;;;46.67;15.27;;;;;;;4.53;100.00;7143.06;5010859;28;20033;-75
2022/12/26 00:16:16;;;;;;;47.42;16.38;;;;;;;4.52;100.00;6493.56;4996479;28;20040;-75
2022/12/26 00:18:42;;;;;;;53.03;16.30;;;;;;;4.54;100.00;6493.69;5027609;28;20035;-74
2022/12/26 00:21:10;;;;;;;79.28;15.18;;;;;;;4.58;100.00;6494.13;5001801;28;20045;-74
2022/12/26 00:23:35;;;;;;;104.88;16.02;;;;;;;4.56;100.00;6493.88;5027052;28;20043;-74
2022/12/26 00:26:03;;;;;;;37.17;14.25;;;;;;;4.52;100.00;6818.19;5009329;28;20041;-74
2022/12/26 00:28:28;;;;;;;56.40;14.13;;;;;;;4.53;100.00;6818.28;5010371;28;20045;-74
2022/12/26 00:30:54;;;;;;;31.60;12.55;;;;;;;4.48;100.00;6817.84;5009266;28;20102;-74
2022/12/26 00:33:19;;;;;;;39.03;16.17;;;;;;;4.46;100.00;7142.38;5006980;28;20041;-74
2022/12/26 00:35:45;;;;;;;36.80;14.15;;;;;;;4.42;100.00;7141.91;5019209;28;20033;-74
2022/12/26 00:38:11;;;;;;;43.88;14.68;;;;;;;4.42;100.00;6817.28;5007075;28;20044;-75
2022/12/26 00:40:41;;;;;;;37.70;15.13;;;;;;;4.43;100.00;7142.06;5010385;28;20406;-74
2022/12/26 00:43:08;;;;;;;55.92;14.93;;;;;;;4.60;100.00;6494.31;5011400;28;20037;-74
2022/12/26 00:45:36;;;;;;;76.95;15.57;;;;;;;4.56;100.00;6493.94;5012448;28;20036;-74
2022/12/26 00:48:01;;;;;;;72.25;15.13;;;;;;;4.61;100.00;6494.34;5011239;28;20033;-74
2022/12/26 00:50:27;;;;;;;57.53;17.40;;;;;;;4.61;100.00;6494.38;5002684;28;20041;-74
2022/12/26 00:52:54;;;;;;;133.00;17.25;;;;;;;4.56;100.00;6818.63;5024271;28;20029;-75
2022/12/26 00:55:19;;;;;;;76.63;16.90;;;;;;;4.57;100.00;7143.44;5008632;28;20068;-74
2022/12/26 00:57:45;;;;;;;47.80;15.85;;;;;;;4.58;100.00;7143.59;5026996;28;20064;-75
2022/12/26 01:00:14;;;;;;;66.57;16.58;;;;;;;4.56;100.00;7143.38;5017778;28;20442;-75
2022/12/26 01:02:40;;;;;;;63.53;16.42;;;;;;;4.61;100.00;6819.13;5016460;28;20115;-74
2022/12/26 01:05:08;;;;;;;61.45;17.10;;;;;;;4.58;100.00;7143.59;5001201;28;20048;-74
2022/12/26 01:07:36;;;;;;;148.52;18.70;;;;;;;4.61;100.00;6819.09;5011042;28;20040;-74
2022/12/26 01:10:03;;;;;;;72.85;17.25;;;;;;;4.63;100.00;6819.31;5028011;28;21664;-74
2022/12/26 01:12:30;;;;;;;96.97;16.65;;;;;;;4.56;100.00;6818.59;5014418;28;20098;-74
2022/12/26 01:14:57;;;;;;;59.10;15.98;;;;;;;4.55;100.00;7143.28;4998064;28;20039;-74
2022/12/26 01:17:23;;;;;;;77.80;17.98;;;;;;;4.52;100.00;7142.97;5042299;28;20027;-74
2022/12/26 01:19:48;;;;;;;71.40;16.15;;;;;;;4.48;100.00;7142.53;5018762;28;20041;-73
2022/12/26 01:22:14;;;;;;;38.60;14.90;;;;;;;4.51;100.00;6818.09;5010882;28;20040;-75
2022/12/26 01:24:40;;;;;;;59.53;17.13;;;;;;;4.52;100.00;6818.25;5009188;28;20047;-74
2022/12/26 01:27:06;;;;;;;54.20;18.15;;;;;;;4.55;100.00;6493.81;5012566;28;20040;-74
2022/12/26 01:29:31;;;;;;;54.15;17.00;;;;;;;4.51;100.00;6493.44;5007547;28;20032;-74
2022/12/26 01:31:57;;;;;;;49.60;16.10;;;;;;;4.53;100.00;6493.59;5008021;28;20615;-74
2022/12/26 01:34:23;;;;;;;51.30;16.40;;;;;;;4.54;100.00;6493.75;5019255;28;20156;-75
2022/12/26 01:36:51;;;;;;;47.90;17.38;;;;;;;4.54;100.00;6169.06;5012287;28;20842;-73
2022/12/26 01:39:16;;;;;;;45.45;17.77;;;;;;;4.56;100.00;6169.25;5006208;28;20068;-74
2022/12/26 01:41:42;;;;;;;94.80;20.10;;;;;;;4.59;100.00;5844.78;5008341;28;20045;-73
2022/12/26 01:44:45;;;;;;;45.15;18.58;;;;;;;4.60;100.00;5844.91;5033742;28;20486;-74
2022/12/26 01:47:11;;;;;;;92.72;17.98;;;;;;;4.55;100.00;6169.09;4997654;28;20048;-74
2022/12/26 01:49:42;;;;;;;53.70;17.65;;;;;;;4.51;100.00;6168.78;5016138;28;20075;-74
2022/12/26 01:52:13;;;;;;;157.57;19.92;;;;;;;4.51;100.00;5844.16;5012033;28;20037;-74
2022/12/26 01:54:41;;;;;;;53.45;17.48;;;;;;;4.51;100.00;5844.16;5010150;28;20885;-74
2022/12/26 01:57:18;;;;;;;68.57;18.92;;;;;;;4.53;100.00;5844.28;5007048;28;20112;-74
2022/12/26 01:59:46;;;;;;;61.35;18.50;;;;;;;4.52;100.00;5519.59;4994960;28;20200;-73
2022/12/26 02:02:12;;;;;;;53.90;16.52;;;;;;;4.52;100.00;5519.63;5004017;28;20128;-74
2022/12/26 02:07:27;;;;;;;76.78;19.00;;;;;;;4.57;100.00;5195.38;5013216;28;20043;-73
2022/12/26 02:09:53;;;;;;;50.90;18.20;;;;;;;4.60;100.00;4871.00;5031751;28;20025;-74
2022/12/26 02:12:24;;;;;;;81.97;19.23;;;;;;;4.56;100.00;4870.75;5031163;28;20036;-76
2022/12/26 02:14:50;;;;;;;80.95;18.73;;;;;;;4.59;100.00;4546.41;5028376;28;20029;-75
2022/12/26 02:17:16;;;;;;;90.45;18.13;;;;;;;4.59;100.00;4546.41;5025374;28;20041;-75
2022/12/26 02:19:48;;;;;;;50.55;14.02;;;;;;;5.07;100.00;3250.31;5013902;28;20037;-75
2022/12/26 02:22:37;;;;;;;58.45;14.43;;;;;;;5.41;100.00;2277.19;5019616;28;20071;-75
2022/12/26 02:25:34;;;;;;;40.97;11.95;;;;;;;5.61;100.00;2277.69;4988760;28;20045;-75
2022/12/26 02:28:25;;;;;;;25.90;10.70;;;;;;;5.64;100.00;2602.69;5031647;28;20646;-75
2022/12/26 02:30:50;;;;;;;27.13;11.13;;;;;;;5.69;100.00;2927.78;4995347;28;20052;-75
2022/12/26 02:33:22;;;;;;;35.22;11.55;;;;;;;5.47;100.00;3901.78;5033330;28;20037;-75
2022/12/26 02:36:07;;;;;;;35.90;10.93;;;;;;;5.31;100.00;4875.66;5028425;28;20033;-75
2022/12/26 02:38:53;;;;;;;35.95;12.77;;;;;;;5.35;100.00;4875.97;5030479;28;20033;-75
2022/12/26 02:41:42;;;;;;;51.20;15.35;;;;;;;5.46;100.00;4876.69;4995141;28;20043;-75
2022/12/26 02:47:14;;;;;;;41.30;14.82;;;;;;;5.58;100.00;5202.56;5013340;28;20094;-75
2022/12/26 03:13:21;;;;;;;65.53;15.35;;;;;;;5.26;100.00;6500.31;5025301;28;20045;-74
2022/12/26 03:18:54;;;;;;;107.97;16.80;;;;;;;5.45;100.00;5526.72;5012913;28;20024;-74
2022/12/26 03:21:25;;;;;;;142.15;18.10;;;;;;;5.40;100.00;5526.34;4995862;28;20037;-74
2022/12/26 03:23:52;;;;;;;48.17;14.98;;;;;;;5.30;100.00;5525.53;5032941;28;20250;-74
2022/12/26 03:26:40;;;;;;;51.13;13.48;;;;;;;5.24;100.00;5525.13;4998930;28;20152;-74
2022/12/26 03:31:57;;;;;;;41.45;16.23;;;;;;;5.21;100.00;5524.91;5012520;28;20182;-74
2022/12/26 03:34:23;;;;;;;75.63;20.67;;;;;;;5.27;100.00;5200.34;4997759;28;20041;-74
2022/12/26 03:37:19;;;;;;;58.72;20.85;;;;;;;5.39;100.00;4551.22;5026928;28;20035;-74
2022/12/26 04:44:22;;;;;;;26.90;12.80;;;;;;;5.44;100.00;1303.00;5013149;28;20052;-73
2022/12/26 04:46:48;;;;;;;34.42;14.18;;;;;;;5.47;100.00;1303.03;5007798;28;20037;-76
2022/12/26 04:52:02;;;;;;;33.90;13.75;;;;;;;5.31;100.00;1627.53;5011721;28;20076;-75
2022/12/26 04:54:28;;;;;;;41.75;13.35;;;;;;;5.23;100.00;1952.09;5015485;28;20044;-75
2022/12/26 04:56:54;;;;;;;37.47;14.52;;;;;;;5.23;100.00;1952.09;5017388;28;20037;-76
2022/12/26 04:59:21;;;;;;;25.88;12.98;;;;;;;5.17;100.00;1951.97;5028154;28;20482;-75
2022/12/26 05:10:07;;;;;;;37.42;15.18;;;;;;;5.33;100.00;1302.91;5022676;28;20076;-74
2022/12/26 05:12:33;;;;;;;41.15;16.17;;;;;;;5.37;100.00;1302.94;5031103;28;20040;-75
2022/12/26 05:14:59;;;;;;;38.47;16.08;;;;;;;5.39;100.00;1302.94;5036709;28;20490;-75
2022/12/26 05:28:42;;;;;;;27.17;15.45;;;;;;;5.67;100.00;1628.03;5033618;28;20029;-74
2022/12/26 05:31:17;;;;;;;39.20;16.30;;;;;;;5.63;100.00;2277.75;5026096;28;20095;-73
2022/12/26 05:36:32;;;;;;;28.55;14.60;;;;;;;5.75;100.00;2927.97;5009540;28;20798;-74
2022/12/26 05:38:58;;;;;;;30.80;14.90;;;;;;;5.58;100.00;3902.28;5045837;28;20032;-74
2022/12/26 05:41:24;;;;;;;28.23;14.02;;;;;;;5.77;100.00;3903.25;5029866;28;20505;-75
2022/12/26 05:43:49;;;;;;;27.30;14.25;;;;;;;5.81;100.00;4228.59;5004790;28;20034;-75
2022/12/26 05:46:15;;;;;;;29.33;14.77;;;;;;;5.82;100.00;4879.03;5016911;28;20055;-74
2022/12/26 05:48:40;;;;;;;35.13;15.05;;;;;;;5.75;100.00;5528.97;5051401;28;20039;-74
2022/12/26 05:51:06;;;;;;;31.20;15.65;;;;;;;5.74;100.00;5854.16;5012157;28;20041;-74
2022/12/26 05:53:34;;;;;;;33.08;16.40;;;;;;;5.74;100.00;6179.44;4997037;28;20037;-75
2022/12/26 05:56:10;;;;;;;36.63;17.48;;;;;;;5.74;100.00;6504.69;4999984;28;20039;-74
2022/12/26 05:58:36;;;;;;;32.22;16.63;;;;;;;6.03;100.00;6181.94;5010858;28;20033;-74
2022/12/26 06:01:09;;;;;;;32.72;17.60;;;;;;;6.14;100.00;6833.94;4998947;28;20106;-74
2022/12/26 06:03:35;;;;;;;35.70;18.30;;;;;;;6.01;100.00;7809.19;5030122;28;20071;-74
2022/12/26 06:06:01;;;;;;;35.05;17.80;;;;;;;6.11;100.00;8461.63;5010536;28;20036;-75
2022/12/26 06:08:27;;;;;;;37.33;18.60;;;;;;;6.04;100.00;9437.78;5023840;28;20043;-74
2022/12/26 06:10:52;;;;;;;40.38;19.80;;;;;;;6.03;100.00;10089.19;5028642;28;20457;-74
2022/12/26 06:13:18;;;;;;;39.25;19.08;;;;;;;6.13;100.00;10742.31;5028858;28;21039;-74
2022/12/26 06:15:44;;;;;;;32.33;18.20;;;;;;;6.19;100.00;11721.03;4997132;28;20025;-74
2022/12/26 06:18:09;;;;;;;33.65;18.02;;;;;;;6.19;100.00;13025.28;5030821;28;20063;-74
2022/12/26 06:20:37;;;;;;;33.80;18.10;;;;;;;6.27;100.00;14331.44;5015913;28;20161;-74
2022/12/26 06:23:03;;;;;;;31.02;16.10;;;;;;;6.28;100.00;16289.66;5015154;28;20056;-74
2022/12/26 06:25:28;;;;;;;26.42;15.63;;;;;;;6.24;100.00;18247.75;5016179;28;20025;-74
2022/12/26 06:27:54;;;;;;;24.73;14.38;;;;;;;6.34;100.00;19883.72;5021278;28;20072;-74
2022/12/26 06:30:20;;;;;;;24.48;14.52;;;;;;;6.36;100.00;22172.47;5019131;28;20034;-75
2022/12/26 06:32:45;;;;;;;23.38;14.05;;;;;;;6.39;100.00;24462.78;4998468;28;20105;-74
2022/12/26 06:35:11;;;;;;;22.88;14.30;;;;;;;6.36;100.00;27079.81;4996269;28;20131;-73
2022/12/26 06:37:37;;;;;;;22.73;14.43;;;;;;;6.39;100.00;29701.03;5034768;28;20098;-74
2022/12/26 06:40:04;;;;;;;22.48;14.05;;;;;;;6.38;100.00;32322.16;5017343;28;20508;-74
2022/12/26 06:42:30;;;;;;;24.98;15.05;;;;;;;6.43;100.00;34292.28;5027892;28;20363;-76
2022/12/26 06:44:56;;;;;;;21.65;14.38;;;;;;;6.39;100.00;36914.53;5014802;28;20029;-74
2022/12/26 06:47:21;;;;;;;21.73;14.23;;;;;;;6.46;100.00;38888.28;5023759;28;20037;-74
2022/12/26 06:49:47;;;;;;;22.42;14.45;;;;;;;6.44;100.00;41843.97;5011118;28;20029;-74
2022/12/26 06:52:13;;;;;;;24.40;15.43;;;;;;;6.46;100.00;44146.53;4998616;28;20072;-74
2022/12/26 06:54:39;;;;;;;21.52;14.90;;;;;;;6.49;100.00;46121.94;5013115;28;20631;-73
2022/12/26 06:57:05;;;;;;;22.92;15.32;;;;;;;6.49;100.00;49413.50;5033000;28;20032;-75
2022/12/26 06:59:31;;;;;;;23.63;16.40;;;;;;;6.48;100.00;51718.38;5024372;28;20037;-74
2022/12/26 07:01:58;;;;;;;23.10;15.93;;;;;;;6.50;100.00;53368.28;5030568;28;20151;-74
2022/12/26 07:04:23;;;;;;;22.95;14.90;;;;;;;6.53;100.00;56008.94;5010919;28;20797;-73
2022/12/26 07:06:49;;;;;;;22.05;15.32;;;;;;;6.55;100.00;58320.56;5009636;28;20044;-74
2022/12/26 07:09:17;;;;;;;22.88;15.07;;;;;;;6.62;100.00;59647.38;5017390;28;20155;-74
2022/12/26 07:11:45;;;;;;;21.35;14.55;;;;;;;6.64;100.00;60640.13;5032096;28;20501;-74
2022/12/26 07:14:12;;;;;;;20.60;14.30;;;;;;;6.57;100.00;62945.75;5026634;28;20522;-74
2022/12/26 07:16:39;;;;;;;19.70;14.73;;;;;;;6.68;100.00;63287.59;5010411;28;20041;-74
2022/12/26 07:19:05;;;;;;;23.23;14.88;;;;;;;6.67;100.00;65270.31;5026227;28;20120;-73
2022/12/26 07:21:31;;;;;;;20.17;14.93;;;;;;;6.75;100.00;67263.31;4992896;28;20044;-74
2022/12/26 07:23:57;;;;;;;18.00;13.88;;;;;;;6.68;100.00;68910.34;5027612;28;20403;-75
2022/12/26 07:26:24;;;;;;;21.48;16.00;;;;;;;6.67;100.00;69240.81;5008355;28;20122;-74
2022/12/26 07:28:57;;;;;;;20.17;15.23;;;;;;;6.73;100.00;68915.97;5017718;28;20659;-74
2022/12/26 07:31:24;;;;;;;24.38;16.63;;;;;;;6.77;100.00;69913.78;5046916;28;20037;-72
2022/12/26 07:33:53;;;;;;;26.63;17.88;;;;;;;6.73;100.00;72559.66;5013541;28;20048;-74
2022/12/26 07:36:19;;;;;;;24.10;17.13;;;;;;;6.75;100.00;75544.75;5005731;28;20041;-73
2022/12/26 07:38:45;;;;;;;23.88;17.42;;;;;;;6.72;100.00;77199.94;5006991;28;20144;-74
2022/12/26 07:43:58;;;;;;;27.80;19.77;;;;;;;6.83;100.00;81528.69;5029302;28;20089;-74
2022/12/26 07:46:23;;;;;;;31.05;21.60;;;;;;;6.82;100.00;84850.78;5015678;28;20049;-75
2022/12/26 07:48:49;;;;;;;30.65;20.85;;;;;;;6.83;100.00;87179.03;5026386;28;20362;-77
2022/12/26 07:51:15;;;;;;;32.15;22.30;;;;;;;6.82;100.00;86845.75;4998538;28;20048;-75
2022/12/26 07:53:42;;;;;;;34.90;23.67;;;;;;;6.70;100.00;88158.19;5005123;28;20044;-75
2022/12/26 07:56:07;;;;;;;38.00;25.52;;;;;;;6.64;100.00;88482.84;5013934;28;20123;-75
2022/12/26 07:58:33;;;;;;;37.97;25.60;;;;;;;6.78;100.00;85842.53;5003989;28;20033;-75
2022/12/26 08:01:00;;;;;;;37.80;26.27;;;;;;;6.79;100.00;88171.94;5002574;28;20049;-75
2022/12/26 08:03:26;;;;;;;37.95;27.08;;;;;;;6.69;100.00;90485.72;5025079;28;20033;-75
2022/12/26 08:05:51;;;;;;;34.67;24.38;;;;;;;6.67;100.00;92812.94;5008734;28;20422;-75
2022/12/26 08:08:17;;;;;;;34.88;25.83;;;;;;;6.71;100.00;97483.84;5011326;28;20510;-75
2022/12/26 08:10:43;;;;;;;35.00;25.15;;;;;;;6.65;100.00;103813.84;5010269;28;20037;-75
2022/12/26 08:13:08;;;;;;;38.50;26.58;;;;;;;6.64;100.00;106484.00;5023573;28;20037;-75
2022/12/26 08:15:37;;;;;;;37.70;26.27;;;;;;;6.65;100.00;104814.72;5022819;28;20059;-75
2022/12/26 08:18:03;;;;;;;41.63;27.50;;;;;;;6.65;100.00;103813.84;5023590;28;20029;-74
2022/12/26 08:20:28;;;;;;;37.95;26.48;;;;;;;6.68;100.00;102817.38;4995761;28;20055;-77
2022/12/26 08:22:54;;;;;;;44.28;29.38;;;;;;;6.61;100.00;101471.50;5029660;28;20036;-75
2022/12/26 08:25:20;;;;;;;46.58;29.33;;;;;;;6.55;100.00;97459.78;5009816;28;20776;-76
2022/12/26 08:27:46;;;;;;;41.45;27.45;;;;;;;6.69;100.00;92483.78;5003841;28;20032;-75
2022/12/26 08:30:12;;;;;;;42.35;28.00;;;;;;;6.78;100.00;91831.47;5005669;28;20045;-75
2022/12/26 08:32:37;;;;;;;39.42;28.42;;;;;;;6.92;100.00;95849.50;5016366;28;20064;-74
2022/12/26 08:35:04;;;;;;;41.75;28.48;;;;;;;6.95;100.00;105869.03;5013759;28;20094;-75
2022/12/26 08:37:29;;;;;;;40.63;28.40;;;;;;;6.95;100.00;117248.13;5013533;28;20041;-75
2022/12/26 08:39:55;;;;;;;39.35;27.85;;;;;;;6.94;100.00;127983.72;5012419;28;20033;-75
2022/12/26 08:42:21;;;;;;;39.60;27.33;;;;;;;6.94;100.00;134709.56;5011437;28;20473;-76
2022/12/26 08:44:47;;;;;;;39.35;27.75;;;;;;;6.90;100.00;142449.63;5027466;28;20036;-75
2022/12/26 08:47:13;;;;;;;39.65;27.60;;;;;;;6.93;100.00;149200.88;5009375;28;20045;-75
2022/12/26 08:49:40;;;;;;;39.08;26.98;;;;;;;7.04;100.00;151745.28;5030017;28;20103;-75
2022/12/26 08:52:06;;;;;;;41.55;28.25;;;;;;;7.07;100.00;154307.31;5042097;28;20513;-75
2022/12/26 08:54:32;;;;;;;42.13;27.63;;;;;;;7.09;100.00;154311.16;5033347;28;20048;-75
2022/12/26 08:56:58;;;;;;;42.70;27.65;;;;;;;7.08;100.00;154308.59;5011265;28;20482;-75
2022/12/26 08:59:24;;;;;;;43.40;28.13;;;;;;;7.02;100.00;154295.78;5010583;28;20040;-75
2022/12/26 09:01:50;;;;;;;45.28;28.40;;;;;;;7.04;100.00;154299.63;5011104;28;20033;-75
2022/12/26 09:04:15;;;;;;;39.22;27.80;;;;;;;7.11;100.00;154317.56;5013229;28;20045;-75
2022/12/26 09:06:42;;;;;;;41.70;27.33;;;;;;;7.15;100.00;154327.78;5015152;28;20044;-75
2022/12/26 09:09:10;;;;;;;40.53;27.02;;;;;;;7.16;100.00;154329.09;4988797;28;20037;-75
2022/12/26 09:11:36;;;;;;;41.25;27.85;;;;;;;7.21;100.00;154341.88;5044619;28;20119;-75
2022/12/26 09:14:03;;;;;;;41.38;27.20;;;;;;;7.26;100.00;154354.69;5021984;28;20037;-75
2022/12/26 09:16:34;;;;;;;36.08;25.80;;;;;;;7.27;100.00;154355.94;5011593;28;20048;-74
2022/12/26 09:19:01;;;;;;;37.70;27.10;;;;;;;7.29;100.00;154362.38;4992888;28;20041;-75
2022/12/26 09:21:28;;;;;;;33.88;25.17;;;;;;;7.24;100.00;154349.56;5002557;28;20475;-75
2022/12/26 09:23:59;;;;;;;38.05;25.67;;;;;;;7.25;100.00;154352.09;5009871;28;20134;-75
2022/12/26 09:26:25;;;;;;;37.22;23.90;;;;;;;7.29;100.00;154361.06;4995148;28;20520;-75
2022/12/26 09:28:51;;;;;;;36.70;24.70;;;;;;;7.31;100.00;154367.50;5009010;28;20553;-75
2022/12/26 09:31:20;;;;;;;38.53;25.17;;;;;;;7.29;100.00;154362.38;5007969;28;20029;-76
2022/12/26 09:33:46;;;;;;;35.28;23.23;;;;;;;7.38;100.00;154384.09;5040424;28;20032;-75
2022/12/26 09:36:15;;;;;;;35.10;23.98;;;;;;;7.36;100.00;154379.00;5010949;28;20049;-75
2022/12/26 09:38:42;;;;;;;36.63;23.15;;;;;;;7.41;100.00;154391.81;5013411;28;20040;-75
2022/12/26 09:41:40;;;;;;;34.63;23.08;;;;;;;7.35;100.00;154377.72;5024640;28;20612;-74
2022/12/26 09:44:21;;;;;;;33.53;22.20;;;;;;;7.38;100.00;154384.09;4997345;28;20047;-76
2022/12/26 09:47:04;;;;;;;31.60;21.70;;;;;;;7.46;100.00;154403.31;5023165;28;20033;-75
2022/12/26 09:49:50;;;;;;;32.05;22.17;;;;;;;7.45;100.00;154402.03;5021307;28;20029;-76
2022/12/26 09:52:33;;;;;;;30.50;20.90;;;;;;;7.49;100.00;154412.28;5017598;28;20040;-75
2022/12/26 09:55:12;;;;;;;31.98;21.10;;;;;;;7.57;100.00;154431.47;5005991;28;20047;-75
2022/12/26 09:57:42;;;;;;;30.27;21.13;;;;;;;7.53;100.00;154421.25;5008451;28;20041;-75
2022/12/26 10:00:18;;;;;;;30.95;21.30;;;;;;;7.50;100.00;154413.59;5022724;28;20092;-75
2022/12/26 10:02:51;;;;;;;30.75;20.90;;;;;;;7.54;100.00;154423.81;5004612;28;20123;-75
2022/12/26 10:05:21;;;;;;;32.20;20.15;;;;;;;7.53;100.00;154421.25;4999450;28;20152;-76
2022/12/26 10:08:24;;;;;;;34.53;22.15;;;;;;;7.50;100.00;154414.84;4996713;28;20041;-75
2022/12/26 10:11:06;;;;;;;30.13;19.95;;;;;;;7.57;100.00;154432.78;5023806;28;20044;-76
2022/12/26 10:13:39;;;;;;;29.98;20.08;;;;;;;7.47;100.00;154407.16;5013181;28;20037;-76
2022/12/26 10:16:19;;;;;;;30.05;19.77;;;;;;;7.57;100.00;154432.78;5002320;28;20857;-76
2022/12/26 10:19:09;;;;;;;28.25;19.55;;;;;;;7.52;100.00;154418.72;5000489;28;20044;-76
2022/12/26 10:21:57;;;;;;;29.17;19.80;;;;;;;7.56;100.00;154430.22;5010641;28;20041;-76
2022/12/26 10:24:29;;;;;;;31.95;20.02;;;;;;;7.56;100.00;154430.22;4996825;28;20509;-76
2022/12/26 10:27:01;;;;;;;28.63;18.95;;;;;;;7.59;100.00;154436.59;5006549;28;20037;-76
2022/12/26 10:29:37;;;;;;;29.38;18.63;;;;;;;7.57;100.00;154431.47;4997347;28;20029;-76
2022/12/26 10:32:19;;;;;;;27.27;18.13;;;;;;;7.57;100.00;154432.78;5019798;28;20044;-76
2022/12/26 10:34:48;;;;;;;30.58;19.02;;;;;;;7.58;100.00;154435.31;5012816;28;20028;-76
2022/12/26 10:37:34;;;;;;;28.25;18.40;;;;;;;7.58;100.00;154435.31;5014931;28;20082;-77
2022/12/26 10:40:23;;;;;;;31.02;18.60;;;;;;;7.59;100.00;154436.59;5033229;28;20048;-75
2022/12/26 10:43:15;;;;;;;28.60;18.05;;;;;;;7.59;100.00;154436.59;5010004;28;20029;-75
2022/12/26 10:45:57;;;;;;;26.20;18.00;;;;;;;7.61;100.00;154441.75;4990879;28;20124;-75
2022/12/26 10:48:27;;;;;;;26.10;17.80;;;;;;;7.64;100.00;154449.41;5011982;28;20036;-76
2022/12/26 10:50:52;;;;;;;28.27;18.98;;;;;;;7.69;100.00;154460.97;5010710;28;20037;-76
2022/12/26 10:53:18;;;;;;;27.90;18.00;;;;;;;7.70;100.00;154464.78;5032688;28;20024;-75
2022/12/26 10:55:44;;;;;;;27.20;18.40;;;;;;;7.74;100.00;154475.06;5012455;28;20025;-75
2022/12/26 10:58:21;;;;;;;30.98;19.08;;;;;;;7.72;100.00;154468.63;5025436;28;20043;-76
2022/12/26 11:00:49;;;;;;;28.20;18.08;;;;;;;7.80;100.00;154490.41;4989321;28;20029;-76
2022/12/26 11:03:18;;;;;;;29.05;17.98;;;;;;;7.79;100.00;154487.81;5010098;28;20579;-75
2022/12/26 11:05:47;;;;;;;26.55;17.95;;;;;;;7.77;100.00;154482.69;5006602;28;20029;-76
2022/12/26 11:08:20;;;;;;;25.58;17.63;;;;;;;7.75;100.00;154477.59;5007240;28;20030;-76
2022/12/26 11:11:19;;;;;;;23.30;16.70;;;;;;;7.82;100.00;154494.25;5029260;28;20082;-75
2022/12/26 11:13:49;;;;;;;26.85;16.67;;;;;;;7.83;100.00;154496.78;4994290;28;20131;-76
2022/12/26 11:16:27;;;;;;;22.73;16.02;;;;;;;7.78;100.00;154485.28;5001984;28;20052;-76
2022/12/26 11:18:54;;;;;;;25.52;16.85;;;;;;;7.75;100.00;154477.59;5011024;28;20563;-76
2022/12/26 11:21:25;;;;;;;23.25;16.05;;;;;;;7.76;100.00;154478.84;4990950;28;20047;-76
2022/12/26 11:24:14;;;;;;;26.00;15.98;;;;;;;7.77;100.00;154482.69;4994805;28;20037;-76
2022/12/26 11:26:39;;;;;;;21.70;14.55;;;;;;;7.79;100.00;154486.56;5027851;28;20123;-76
2022/12/26 11:29:19;;;;;;;23.13;15.40;;;;;;;7.78;100.00;154484.03;5002053;28;20121;-76
2022/12/26 11:32:02;;;;;;;23.27;14.88;;;;;;;7.76;100.00;154478.84;5029780;28;20040;-75
2022/12/26 11:34:33;;;;;;;22.23;14.77;;;;;;;7.79;100.00;154487.81;5027796;28;20396;-76
2022/12/26 11:36:59;;;;;;;22.08;14.55;;;;;;;7.83;100.00;154496.78;5035937;28;20134;-76
2022/12/26 11:39:30;;;;;;;24.67;14.77;;;;;;;7.86;100.00;154504.50;5010505;28;20037;-75
2022/12/26 11:41:56;;;;;;;20.75;13.90;;;;;;;7.86;100.00;154503.22;5020904;28;20032;-73
2022/12/26 11:44:32;;;;;;;23.27;13.80;;;;;;;7.84;100.00;154498.09;5016355;28;20159;-75
2022/12/26 11:47:16;;;;;;;19.52;13.00;;;;;;;7.83;100.00;154495.53;5025474;28;20037;-76
2022/12/26 11:50:00;;;;;;;18.83;12.73;;;;;;;7.83;100.00;154496.78;5001146;28;20033;-76
2022/12/26 11:52:41;;;;;;;18.25;13.07;;;;;;;7.90;100.00;154514.72;5005617;28;21881;-76
2022/12/26 11:55:28;;;;;;;22.88;13.68;;;;;;;7.90;100.00;154514.72;5009295;28;20489;-75
2022/12/26 11:58:00;;;;;;;21.05;12.55;;;;;;;7.95;100.00;154526.28;5027364;28;20041;-76
2022/12/26 12:00:27;;;;;;;17.85;12.02;;;;;;;7.94;100.00;154523.69;5005192;28;20041;-76
2022/12/26 12:02:53;;;;;;;20.17;12.05;;;;;;;7.96;100.00;154528.81;4985178;28;20037;-76
2022/12/26 12:05:37;;;;;;;17.88;11.93;;;;;;;7.98;100.00;154535.22;4988034;28;20049;-77
2022/12/26 12:08:19;;;;;;;19.40;12.45;;;;;;;7.91;100.00;154516.00;5028247;28;20458;-75
2022/12/26 12:11:33;;;;;;;19.10;13.27;;;;;;;7.85;100.00;154501.91;5008243;28;20124;-76
2022/12/26 12:14:09;;;;;;;20.55;13.23;;;;;;;7.76;100.00;154480.16;4966450;28;20162;-76
2022/12/26 12:16:55;;;;;;;21.52;13.27;;;;;;;7.75;100.00;154477.59;4997320;28;20056;-76
2022/12/26 12:19:26;;;;;;;19.50;13.65;;;;;;;7.71;100.00;154466.09;5030114;28;20105;-77
2022/12/26 12:22:07;;;;;;;23.08;13.70;;;;;;;7.68;100.00;154459.66;5030358;28;20037;-75
2022/12/26 12:24:55;;;;;;;19.02;13.60;;;;;;;7.69;100.00;154462.22;5011028;28;20040;-76
2022/12/26 12:27:55;;;;;;;20.63;14.38;;;;;;;7.69;100.00;154462.22;5012930;28;20115;-75
2022/12/26 12:30:44;;;;;;;22.95;13.07;;;;;;;7.73;100.00;154471.19;5012846;28;20104;-75
2022/12/26 12:33:37;;;;;;;19.50;12.77;;;;;;;7.72;100.00;154468.63;5010457;28;20053;-75
2022/12/26 12:36:15;;;;;;;16.60;11.65;;;;;;;7.77;100.00;154481.44;4998988;28;20371;-74
2022/12/26 12:39:04;;;;;;;20.38;11.25;;;;;;;7.87;100.00;154507.03;5009796;28;20048;-77
2022/12/26 12:41:39;;;;;;;18.38;11.55;;;;;;;7.87;100.00;154505.75;5026747;28;20564;-78
2022/12/26 12:44:18;;;;;;;14.52;10.10;;;;;;;7.88;100.00;154508.34;5028085;28;20045;-75
2022/12/26 12:46:56;;;;;;;15.55;9.80;;;;;;;7.91;100.00;154517.31;5013801;28;20500;-75
2022/12/26 12:49:41;;;;;;;16.08;9.82;;;;;;;7.92;100.00;154518.56;5002132;28;20033;-76
2022/12/26 12:52:12;;;;;;;13.90;9.00;;;;;;;7.96;100.00;154528.81;5008531;28;20041;-75
2022/12/26 12:55:09;;;;;;;11.85;8.75;;;;;;;7.92;100.00;154518.56;5012189;28;20036;-76
2022/12/26 12:57:42;;;;;;;13.18;8.35;;;;;;;7.85;100.00;154501.91;5017866;28;20057;-75
2022/12/26 13:00:16;;;;;;;;;;;;;;;7.85;100.00;154500.63;5016039;28;20091;-76
2022/12/26 13:02:51;;;;;;;12.27;8.93;;;;;;;7.84;100.00;154498.09;5015486;28;19923;-75
2022/12/26 13:05:19;;;;;;;11.52;8.18;;;;;;;7.92;100.00;154519.84;5028716;28;20096;-74
2022/12/26 13:07:53;;;;;;;9.35;8.23;;;;;;;7.96;100.00;154528.81;5027894;28;20048;-76
2022/12/26 13:10:26;;;;;;;9.63;7.88;;;;;;;8.04;100.00;154548.03;5012225;28;20037;-75
2022/12/26 13:12:52;;;;;;;;;;;;;;;8.03;100.00;154546.75;5051146;28;20028;-76
2022/12/26 13:15:41;;;;;;;9.95;7.65;;;;;;;8.02;100.00;154542.91;5032509;28;19916;-74
2022/12/26 13:18:17;;;;;;;12.68;6.57;;;;;;;7.96;100.00;154530.09;4997852;28;20033;-76
2022/12/26 13:21:04;;;;;;;11.07;6.05;;;;;;;7.99;100.00;154536.53;5048901;28;20120;-75
2022/12/26 13:26:36;;;;;;;8.88;4.57;;;;;;;8.28;100.00;154608.25;5028925;28;20045;-75
2022/12/26 13:29:14;;;;;;;7.22;3.85;;;;;;;8.75;100.00;154727.44;4998548;28;20041;-76
2022/12/26 13:31:40;;;;;;;6.80;3.00;;;;;;;9.07;100.00;154806.88;5044191;28;20052;-76
2022/12/26 13:34:10;;;;;;;9.07;2.85;;;;;;;8.88;100.00;154758.19;5018854;28;20090;-75
2022/12/26 13:36:48;;;;;;;6.03;2.60;;;;;;;8.63;100.00;154695.44;5029161;28;20032;-75
2022/12/26 13:39:26;;;;;;;4.68;2.25;;;;;;;8.27;100.00;154605.66;5022533;28;20038;-75
2022/12/26 13:44:48;;;;;;;4.65;0.65;;;;;;;7.69;100.00;154462.22;5025207;28;20591;-76
2022/12/26 13:47:36;;;;;;;2.28;0.60;;;;;;;7.55;100.00;154426.34;5010043;28;20044;-75
2022/12/26 13:50:45;;;;;;;7.97;1.05;;;;;;;7.40;100.00;154389.22;5008404;28;20036;-75